KGHG

Details ICAO KGHG (GHG)
Name MARSHFIELD MUNI GEORGE HARLOW FLD
Region United States
Timezone America/New_York (UTC-5.0)
Plans Departing 2
Arriving 3
Stats Elevation 11 ft / 3 m (AMSL)
Location 42.098236° -70.672132°
Runways 1
Magnetic Variation 14.737° W
Sunrise 2017-12-17 12:06:54 UTC / 2017-12-17 07:06:54 Local
Sunset 2017-12-17 21:13:39 UTC / 2017-12-17 16:13:39 Local
Advertisement - Login to hide

Runways

ID Width Length Bearing (true) Bearing (mag) Surface Threshold Offset Overrun Length
06 75 ft / 23 m 3,000 ft / 914 m 46.00° 60.74° Asphalt 0 ft / 0 m 0 ft / 0 m
24 75 ft / 23 m 3,000 ft / 914 m 226.00° 240.74° Asphalt 0 ft / 0 m 0 ft / 0 m

Map

Weather


0- 5 10 15 20 25 30 35+ Temperature / ° C

Clouds and Precipitation
Forecast for 2017-12-17 18:00 UTC. Updated 38 minutes ago

Ground ~20,000 ft ~40,000 ft Winds

METAR

KGHG 171735Z AUTO VRB07KT 260V340 10SM CLR M01/M16 A3023 RMK AO2

TAF

Not found

Frequencies

Recorded 120.00 MHz AWOS 3
Approach 124.10 MHz BOSTON APP/DEP
Unicom 122.80 MHz CTAF/UNICOM
Warning: Do not use this data for real-world aviation or navigation. No guarantee of current accuracy is given.